Time;durP1;ratioP1;P1;durP2;ratioP2;P2;SDS_P1;SDS_P2;PMS_P1;PMS_P2;Temp;Humidity;BMP_temperature;BMP_pressure;BME280_temperature;BME280_humidity;BME280_pressure;Samples;Min_cycle;Max_cycle;Signal;HPM_P1;HPM_P2
2022/11/12 00:00:08;;;;;;;;;;;8.30;90.60;;;;;;4998954;28;20400;-43
2022/11/12 00:02:34;;;;;;;;;;;8.20;90.50;;;;;;5002653;28;19910;-43
2022/11/12 00:05:01;;;;;;;;;;;8.20;90.60;;;;;;5011516;28;19914;-43
2022/11/12 00:07:28;;;;;;;;;;;8.20;90.60;;;;;;4995603;28;19906;-44
2022/11/12 00:09:57;;;;;;;;;;;8.20;90.60;;;;;;5003211;28;19920;-44
2022/11/12 00:12:24;;;;;;;;;;;8.10;90.50;;;;;;5016336;28;20280;-43
2022/11/12 00:14:50;;;;;;;;;;;8.10;90.50;;;;;;5012792;28;20335;-43
2022/11/12 00:17:16;;;;;;;;;;;8.10;90.50;;;;;;4996109;28;19917;-43
2022/11/12 00:19:43;;;;;;;;;;;8.00;90.50;;;;;;4996377;28;19918;-43
2022/11/12 00:22:09;;;;;;;;;;;8.00;90.50;;;;;;4996305;28;19999;-44
2022/11/12 00:24:36;;;;;;;;;;;7.90;90.50;;;;;;5013083;28;19956;-43
2022/11/12 00:27:02;;;;;;;;;;;7.90;90.60;;;;;;5015557;28;19918;-43
2022/11/12 00:29:29;;;;;;;;;;;7.90;90.50;;;;;;5007205;28;20008;-45
2022/11/12 00:31:56;;;;;;;;;;;7.90;90.40;;;;;;4996374;28;19905;-42
2022/11/12 00:34:22;;;;;;;;;;;7.80;90.30;;;;;;5011439;28;19996;-43
2022/11/12 00:36:52;;;;;;;;;;;7.80;90.50;;;;;;5009673;28;20230;-42
2022/11/12 00:39:18;;;;;;;;;;;7.80;90.40;;;;;;5005311;28;19920;-43
2022/11/12 00:41:44;;;;;;;;;;;7.70;90.80;;;;;;5015639;28;19987;-43
2022/11/12 00:44:11;;;;;;;;;;;7.80;90.80;;;;;;5015542;28;20401;-43
2022/11/12 00:46:37;;;;;;;;;;;7.70;90.90;;;;;;5005477;28;19924;-42
2022/11/12 00:49:04;;;;;;;;;;;7.70;90.90;;;;;;4996034;28;19913;-42
2022/11/12 00:51:33;;;;;;;;;;;7.70;90.90;;;;;;4995645;28;19909;-43
2022/11/12 00:53:59;;;;;;;;;;;7.70;90.90;;;;;;5004082;28;19913;-44
2022/11/12 00:56:24;;;;;;;;;;;7.70;90.90;;;;;;5014194;28;20437;-44
2022/11/12 00:58:51;;;;;;;;;;;7.70;91.20;;;;;;5015306;28;19913;-42
2022/11/12 01:01:19;;;;;;;;;;;7.60;91.20;;;;;;5007992;28;19928;-42
2022/11/12 01:03:44;;;;;;;;;;;7.60;91.30;;;;;;4994021;28;19916;-43
2022/11/12 01:06:11;;;;;;;;;;;7.70;91.30;;;;;;4995706;28;20246;-42
2022/11/12 01:08:39;;;;;;;;;;;7.70;91.30;;;;;;4995752;28;19913;-42
2022/11/12 01:11:11;;;;;;;;;;;7.60;91.30;;;;;;5013956;28;19944;-43
2022/11/12 01:13:39;;;;;;;;;;;7.60;91.20;;;;;;4993454;28;19918;-42
2022/11/12 01:16:05;;;;;;;;;;;7.60;91.30;;;;;;5000145;28;19913;-43
2022/11/12 01:18:33;;;;;;;;;;;7.60;91.30;;;;;;5013476;28;19913;-42
2022/11/12 01:21:00;;;;;;;;;;;7.50;91.10;;;;;;5009093;28;19921;-43
2022/11/12 01:23:27;;;;;;;;;;;7.60;91.40;;;;;;5006732;28;19932;-42
2022/11/12 01:25:53;;;;;;;;;;;7.60;91.30;;;;;;5012773;28;19909;-42
2022/11/12 01:28:21;;;;;;;;;;;7.60;91.30;;;;;;5013757;28;20382;-42
2022/11/12 01:30:46;;;;;;;;;;;7.50;91.10;;;;;;5010646;28;19975;-43
2022/11/12 01:33:12;;;;;;;;;;;7.50;91.20;;;;;;5014371;28;20004;-42
2022/11/12 01:35:39;;;;;;;;;;;7.40;91.20;;;;;;5011392;28;19913;-44
2022/11/12 01:38:04;;;;;;;;;;;7.50;91.30;;;;;;5013096;28;19979;-42
2022/11/12 01:40:31;;;;;;;;;;;7.40;91.20;;;;;;4995262;28;20429;-42
2022/11/12 01:42:58;;;;;;;;;;;7.40;91.30;;;;;;5009446;28;19996;-42
2022/11/12 01:45:24;;;;;;;;;;;7.40;91.40;;;;;;5005918;28;19913;-42
2022/11/12 01:48:00;;;;;;;;;;;7.40;91.30;;;;;;5013432;28;19914;-42
2022/11/12 01:50:34;;;;;;;;;;;7.40;91.30;;;;;;5002868;28;19957;-43
2022/11/12 01:53:04;;;;;;;;;;;7.40;91.30;;;;;;5000128;28;19909;-43
2022/11/12 01:55:35;;;;;;;;;;;7.40;91.30;;;;;;5013282;28;20346;-42
2022/11/12 01:58:09;;;;;;;;;;;7.40;91.20;;;;;;5014247;28;19916;-44
2022/11/12 02:00:38;;;;;;;;;;;7.40;91.20;;;;;;5003834;28;19909;-43
2022/11/12 02:03:08;;;;;;;;;;;7.40;91.10;;;;;;5012653;28;19924;-43
2022/11/12 02:05:36;;;;;;;;;;;7.40;91.20;;;;;;5008723;28;20270;-42
2022/11/12 02:08:09;;;;;;;;;;;7.30;91.00;;;;;;5006338;28;20335;-43
2022/11/12 02:10:37;;;;;;;;;;;7.30;91.10;;;;;;5013332;28;19932;-47
2022/11/12 02:15:49;;;;;;;;;;;7.30;91.20;;;;;;5000263;28;20234;-43
2022/11/12 02:18:15;;;;;;;;;;;7.30;91.20;;;;;;4993276;28;19918;-42
2022/11/12 02:20:41;;;;;;;;;;;7.30;91.10;;;;;;4994270;28;19933;-44
2022/11/12 02:23:07;;;;;;;;;;;7.20;91.00;;;;;;5010642;28;19909;-43
2022/11/12 02:25:34;;;;;;;;;;;7.20;91.00;;;;;;5012931;28;19909;-43
2022/11/12 02:28:04;;;;;;;;;;;7.20;90.80;;;;;;5010353;28;19921;-42
2022/11/12 02:30:49;;;;;;;;;;;7.20;90.90;;;;;;4993449;28;19923;-43
2022/11/12 02:33:14;;;;;;;;;;;7.10;90.90;;;;;;4993672;28;19918;-43
2022/11/12 02:35:41;;;;;;;;;;;7.10;90.80;;;;;;4992721;28;19917;-42
2022/11/12 02:38:07;;;;;;;;;;;7.00;90.90;;;;;;4998528;28;20369;-44
2022/11/12 02:40:34;;;;;;;;;;;7.00;91.00;;;;;;5011404;28;19948;-42
2022/11/12 02:42:59;;;;;;;;;;;7.00;91.10;;;;;;5012123;28;19909;-43
2022/11/12 02:45:26;;;;;;;;;;;7.00;91.20;;;;;;4992618;28;20000;-42
2022/11/12 02:47:53;;;;;;;;;;;7.00;91.10;;;;;;5000897;28;19906;-42
2022/11/12 02:50:20;;;;;;;;;;;7.00;91.30;;;;;;4993914;28;19921;-42
2022/11/12 02:52:47;;;;;;;;;;;7.00;91.20;;;;;;4997733;28;19913;-42
2022/11/12 02:55:12;;;;;;;;;;;7.00;91.30;;;;;;5012183;28;20327;-42
2022/11/12 02:57:39;;;;;;;;;;;7.00;91.30;;;;;;5009894;28;19924;-44
2022/11/12 03:00:07;;;;;;;;;;;7.00;91.40;;;;;;5000330;28;19905;-43
2022/11/12 03:02:41;;;;;;;;;;;7.00;91.30;;;;;;5019507;28;19945;-42
2022/11/12 03:05:13;;;;;;;;;;;7.00;91.30;;;;;;5012002;28;20009;-43
2022/11/12 03:07:40;;;;;;;;;;;7.00;91.40;;;;;;5000893;28;19910;-44
2022/11/12 03:10:07;;;;;;;;;;;6.90;91.20;;;;;;5018996;28;19909;-43
2022/11/12 03:12:33;;;;;;;;;;;6.90;91.30;;;;;;5019717;28;19911;-42
2022/11/12 03:14:59;;;;;;;;;;;6.90;91.40;;;;;;5016891;28;19916;-43
2022/11/12 03:17:24;;;;;;;;;;;6.90;91.60;;;;;;5018945;28;19914;-43
2022/11/12 03:19:51;;;;;;;;;;;6.90;91.50;;;;;;5018411;28;20301;-42
2022/11/12 03:22:18;;;;;;;;;;;6.90;91.40;;;;;;5018053;28;19920;-45
2022/11/12 03:24:45;;;;;;;;;;;6.90;91.60;;;;;;5017620;28;19917;-43
2022/11/12 03:27:10;;;;;;;;;;;6.90;91.60;;;;;;5018368;28;19909;-45
2022/11/12 03:29:37;;;;;;;;;;;6.90;91.70;;;;;;5018621;28;19914;-42
2022/11/12 03:32:03;;;;;;;;;;;6.90;91.70;;;;;;5018432;28;19941;-46
2022/11/12 03:34:29;;;;;;;;;;;6.90;91.90;;;;;;5015597;28;19945;-42
2022/11/12 03:36:55;;;;;;;;;;;6.90;91.70;;;;;;5000105;28;19910;-45
2022/11/12 03:39:20;;;;;;;;;;;6.90;91.80;;;;;;5012891;28;20259;-42
2022/11/12 03:41:47;;;;;;;;;;;6.80;91.80;;;;;;5019568;28;19925;-43
2022/11/12 03:44:17;;;;;;;;;;;6.80;92.00;;;;;;5017906;28;19905;-42
2022/11/12 03:46:46;;;;;;;;;;;6.90;92.00;;;;;;5019440;28;19978;-43
2022/11/12 03:49:13;;;;;;;;;;;6.80;91.90;;;;;;5014204;28;20308;-43
2022/11/12 03:51:39;;;;;;;;;;;6.70;91.90;;;;;;5019187;28;19905;-43
2022/11/12 03:54:07;;;;;;;;;;;6.70;91.80;;;;;;5013459;28;20355;-43
2022/11/12 03:56:34;;;;;;;;;;;6.70;92.00;;;;;;4999663;28;19957;-42
2022/11/12 03:59:01;;;;;;;;;;;6.70;91.90;;;;;;5013476;28;19906;-43
2022/11/12 04:01:26;;;;;;;;;;;6.60;91.90;;;;;;5015259;28;19913;-44
2022/11/12 04:03:54;;;;;;;;;;;6.50;92.00;;;;;;4999525;28;20228;-43
2022/11/12 04:09:05;;;;;;;;;;;6.60;92.10;;;;;;5010774;28;20243;-43
2022/11/12 04:11:34;;;;;;;;;;;6.60;92.10;;;;;;5015811;28;19913;-43
2022/11/12 04:14:01;;;;;;;;;;;6.50;91.80;;;;;;5012540;28;19988;-44
2022/11/12 04:22:02;;;;;;;;;;;6.40;91.90;;;;;;5012742;28;19940;-43
2022/11/12 04:27:19;;;;;;;;;;;6.40;91.90;;;;;;5015217;28;20365;-43
2022/11/12 04:32:32;;;;;;;;;;;6.40;92.00;;;;;;5013914;28;20014;-43
2022/11/12 04:34:59;;;;;;;;;;;6.40;92.00;;;;;;5012450;28;19914;-43
2022/11/12 04:37:27;;;;;;;;;;;6.40;92.10;;;;;;5013385;28;19921;-45
2022/11/12 04:39:53;;;;;;;;;;;6.30;91.90;;;;;;5014046;28;20451;-43
2022/11/12 04:45:12;;;;;;;;;;;6.30;92.00;;;;;;5012625;28;19935;-43
2022/11/12 04:47:40;;;;;;;;;;;6.30;92.10;;;;;;5015633;28;19920;-44
2022/11/12 04:50:14;;;;;;;;;;;6.30;92.00;;;;;;5015555;28;20243;-44
2022/11/12 04:52:41;;;;;;;;;;;6.30;91.90;;;;;;4997131;28;19913;-44
2022/11/12 04:55:08;;;;;;;;;;;6.30;92.00;;;;;;5015850;28;19917;-43
2022/11/12 04:57:38;;;;;;;;;;;6.30;92.00;;;;;;5007126;28;20271;-48
2022/11/12 05:00:05;;;;;;;;;;;6.30;91.90;;;;;;4995653;28;19992;-44
2022/11/12 05:02:30;;;;;;;;;;;6.30;91.90;;;;;;4995857;28;20001;-44
2022/11/12 05:04:57;;;;;;;;;;;6.30;91.90;;;;;;4995727;28;20291;-45
2022/11/12 05:07:23;;;;;;;;;;;6.30;91.80;;;;;;5001677;28;20354;-45
2022/11/12 05:09:49;;;;;;;;;;;6.30;91.80;;;;;;5013876;28;19909;-43
2022/11/12 05:12:17;;;;;;;;;;;6.20;91.70;;;;;;5001099;28;19917;-45
2022/11/12 05:14:42;;;;;;;;;;;6.20;91.80;;;;;;4995348;28;19997;-45
2022/11/12 05:17:08;;;;;;;;;;;6.20;92.00;;;;;;4994341;28;20007;-44
2022/11/12 05:19:35;;;;;;;;;;;6.30;91.90;;;;;;5009152;28;19922;-45
2022/11/12 05:22:06;;;;;;;;;;;6.20;91.90;;;;;;5000571;28;20028;-44
2022/11/12 05:24:35;;;;;;;;;;;6.20;91.90;;;;;;5007943;28;19910;-47
2022/11/12 05:27:01;;;;;;;;;;;6.30;91.90;;;;;;4995166;28;19905;-45
2022/11/12 05:29:30;;;;;;;;;;;6.20;91.90;;;;;;4994245;28;20302;-45
2022/11/12 05:31:58;;;;;;;;;;;6.30;92.10;;;;;;4995308;28;19920;-46
2022/11/12 05:34:25;;;;;;;;;;;6.30;91.90;;;;;;4995512;28;19959;-45
2022/11/12 05:36:52;;;;;;;;;;;6.20;91.80;;;;;;4996651;28;19921;-45
2022/11/12 05:39:18;;;;;;;;;;;6.30;91.90;;;;;;5010285;28;19916;-45
2022/11/12 05:41:45;;;;;;;;;;;6.20;92.00;;;;;;4994929;28;19906;-45
2022/11/12 05:44:12;;;;;;;;;;;6.20;92.00;;;;;;5008968;28;19914;-45
2022/11/12 05:46:39;;;;;;;;;;;6.20;92.10;;;;;;4994880;28;20008;-45
2022/11/12 05:49:05;;;;;;;;;;;6.30;92.20;;;;;;4994807;28;20393;-45
2022/11/12 05:51:30;;;;;;;;;;;6.30;92.10;;;;;;4995153;28;19910;-46
2022/11/12 05:53:57;;;;;;;;;;;6.30;92.20;;;;;;5014767;28;19936;-46
2022/11/12 05:56:24;;;;;;;;;;;6.30;92.10;;;;;;5010974;28;19910;-45
2022/11/12 05:58:50;;;;;;;;;;;6.30;92.10;;;;;;5014175;28;19913;-46
2022/11/12 06:01:15;;;;;;;;;;;6.30;92.10;;;;;;5002862;28;19920;-47
2022/11/12 06:03:43;;;;;;;;;;;6.20;91.90;;;;;;5009993;28;19909;-46
2022/11/12 06:06:12;;;;;;;;;;;6.20;92.00;;;;;;5013241;28;20353;-45
2022/11/12 06:08:39;;;;;;;;;;;6.10;92.00;;;;;;5009941;28;20394;-45
2022/11/12 06:11:04;;;;;;;;;;;6.20;92.00;;;;;;5011899;28;19913;-46
2022/11/12 06:13:31;;;;;;;;;;;6.20;92.00;;;;;;5011598;28;19943;-46
2022/11/12 06:15:57;;;;;;;;;;;6.20;92.10;;;;;;5004314;28;19971;-49
2022/11/12 06:18:24;;;;;;;;;;;6.20;92.00;;;;;;5012127;28;20303;-46
2022/11/12 06:23:45;;;;;;;;;;;6.10;92.00;;;;;;5012127;28;20012;-46
2022/11/12 06:26:10;;;;;;;;;;;6.10;92.00;;;;;;4987544;28;19921;-47
2022/11/12 06:28:37;;;;;;;;;;;6.00;92.00;;;;;;5010949;28;19921;-47
2022/11/12 06:31:04;;;;;;;;;;;6.00;91.80;;;;;;5011659;28;19905;-46
2022/11/12 06:33:31;;;;;;;;;;;6.00;92.00;;;;;;5027155;28;19913;-48
2022/11/12 06:36:03;;;;;;;;;;;6.00;92.00;;;;;;5010392;28;19921;-46
2022/11/12 06:38:34;;;;;;;;;;;5.90;91.90;;;;;;4989458;28;20373;-48
2022/11/12 06:41:00;;;;;;;;;;;6.00;92.00;;;;;;5008652;28;19917;-46
2022/11/12 06:43:29;;;;;;;;;;;6.00;92.00;;;;;;4994103;28;19942;-46
2022/11/12 06:45:57;;;;;;;;;;;5.90;92.10;;;;;;4992968;28;19964;-46
2022/11/12 06:48:24;;;;;;;;;;;6.00;92.10;;;;;;5009539;28;19960;-46
2022/11/12 06:50:51;;;;;;;;;;;5.90;92.10;;;;;;5010821;28;19915;-47
2022/11/12 06:53:18;;;;;;;;;;;5.90;92.00;;;;;;5012016;28;19983;-46
2022/11/12 06:55:45;;;;;;;;;;;5.90;92.00;;;;;;5010998;28;20335;-49
2022/11/12 06:58:11;;;;;;;;;;;5.90;92.10;;;;;;5012702;28;20004;-47
2022/11/12 07:00:38;;;;;;;;;;;5.90;92.20;;;;;;5008554;28;19968;-48
2022/11/12 07:03:07;;;;;;;;;;;6.00;92.20;;;;;;5004445;28;19916;-46
2022/11/12 07:05:37;;;;;;;;;;;5.90;92.00;;;;;;4990424;28;19928;-49
2022/11/12 07:08:05;;;;;;;;;;;5.90;92.20;;;;;;5010033;28;19924;-48
2022/11/12 07:10:31;;;;;;;;;;;5.90;92.20;;;;;;5011545;28;19921;-47
2022/11/12 07:12:57;;;;;;;;;;;6.00;92.20;;;;;;5012037;28;20000;-47
2022/11/12 07:15:23;;;;;;;;;;;5.90;92.10;;;;;;5010720;28;20004;-47
2022/11/12 07:17:48;;;;;;;;;;;5.90;92.10;;;;;;5011422;28;20002;-46
2022/11/12 07:20:15;;;;;;;;;;;5.90;92.20;;;;;;5008241;28;19933;-51
2022/11/12 07:22:42;;;;;;;;;;;5.90;92.20;;;;;;5009088;28;19921;-51
2022/11/12 07:25:07;;;;;;;;;;;5.90;92.20;;;;;;5011462;28;19918;-48
2022/11/12 07:27:34;;;;;;;;;;;5.90;92.20;;;;;;5011355;28;19905;-48
2022/11/12 07:30:01;;;;;;;;;;;5.90;92.10;;;;;;5012146;28;19937;-51
2022/11/12 07:32:30;;;;;;;;;;;5.90;92.10;;;;;;5007618;28;19913;-47
2022/11/12 07:34:57;;;;;;;;;;;5.90;92.10;;;;;;5010988;28;19916;-54
2022/11/12 07:37:22;;;;;;;;;;;5.90;92.10;;;;;;5007370;28;20484;-47
2022/11/12 07:39:49;;;;;;;;;;;6.00;92.00;;;;;;4994736;28;19960;-49
2022/11/12 07:42:16;;;;;;;;;;;6.00;92.00;;;;;;5011357;28;20315;-47
2022/11/12 07:44:42;;;;;;;;;;;6.00;92.10;;;;;;5012062;28;19952;-49
2022/11/12 07:47:08;;;;;;;;;;;6.00;92.20;;;;;;5011718;28;20269;-47
2022/11/12 07:49:34;;;;;;;;;;;6.10;92.20;;;;;;5007946;28;20378;-47
2022/11/12 07:52:01;;;;;;;;;;;6.20;92.20;;;;;;5010307;28;20088;-50
2022/11/12 07:54:27;;;;;;;;;;;6.20;92.20;;;;;;5015992;28;19952;-47
2022/11/12 07:56:54;;;;;;;;;;;6.20;92.30;;;;;;5014817;28;19905;-48
2022/11/12 07:59:20;;;;;;;;;;;6.30;92.30;;;;;;5014043;28;20067;-47
2022/11/12 08:01:46;;;;;;;;;;;6.30;92.30;;;;;;5012268;28;20000;-49
2022/11/12 08:04:12;;;;;;;;;;;6.30;92.40;;;;;;5016247;28;19909;-48
2022/11/12 08:06:40;;;;;;;;;;;6.40;92.50;;;;;;5015922;28;19916;-48
2022/11/12 08:09:07;;;;;;;;;;;6.40;92.50;;;;;;5016059;28;19913;-49
2022/11/12 08:11:34;;;;;;;;;;;6.40;92.50;;;;;;5011830;28;20342;-48
2022/11/12 08:14:00;;;;;;;;;;;6.50;92.60;;;;;;5013739;28;19913;-49
2022/11/12 08:16:28;;;;;;;;;;;6.50;92.50;;;;;;5014464;28;19959;-47
2022/11/12 08:19:08;;;;;;;;;;;6.60;92.60;;;;;;5013710;28;19910;-49
2022/11/12 08:21:39;;;;;;;;;;;6.70;92.60;;;;;;5008631;28;19963;-49
2022/11/12 08:24:05;;;;;;;;;;;6.70;92.50;;;;;;5007108;28;20242;-49
2022/11/12 08:26:36;;;;;;;;;;;6.70;92.50;;;;;;5014971;28;19906;-48
2022/11/12 08:29:03;;;;;;;;;;;6.70;92.50;;;;;;5015541;28;19909;-49
2022/11/12 08:31:29;;;;;;;;;;;6.90;92.50;;;;;;5013103;28;19944;-50
2022/11/12 08:33:55;;;;;;;;;;;6.90;92.40;;;;;;5015732;28;20363;-47
2022/11/12 08:36:21;;;;;;;;;;;7.00;92.30;;;;;;5013440;28;20000;-46
2022/11/12 08:38:48;;;;;;;;;;;7.00;92.10;;;;;;5014184;28;20036;-49
2022/11/12 08:41:13;;;;;;;;;;;7.00;92.20;;;;;;5014139;28;19909;-47
2022/11/12 08:43:41;;;;;;;;;;;7.20;92.30;;;;;;5002569;28;19938;-47
2022/11/12 08:46:08;;;;;;;;;;;7.30;92.10;;;;;;5011101;28;19924;-47
2022/11/12 08:48:34;;;;;;;;;;;7.40;92.10;;;;;;5010609;28;19909;-46
2022/11/12 08:51:02;;;;;;;;;;;7.50;91.90;;;;;;5001419;28;20274;-46
2022/11/12 08:53:29;;;;;;;;;;;7.70;91.90;;;;;;5014188;28;19971;-45
2022/11/12 08:55:57;;;;;;;;;;;7.90;91.70;;;;;;5014560;28;19965;-46
2022/11/12 08:58:24;;;;;;;;;;;8.00;91.10;;;;;;5013878;28;19953;-45
2022/11/12 09:00:53;;;;;;;;;;;8.20;90.80;;;;;;5012474;28;19913;-45
2022/11/12 09:03:21;;;;;;;;;;;8.30;90.20;;;;;;4995755;28;19914;-45
2022/11/12 09:05:48;;;;;;;;;;;8.50;90.10;;;;;;4997499;28;19913;-45
2022/11/12 09:08:17;;;;;;;;;;;8.70;90.10;;;;;;5014647;28;19909;-47
2022/11/12 09:10:42;;;;;;;;;;;8.80;89.00;;;;;;5013609;28;20258;-47
2022/11/12 09:13:09;;;;;;;;;;;8.80;88.70;;;;;;5009953;28;20000;-44
2022/11/12 09:15:35;;;;;;;;;;;8.90;88.80;;;;;;4994910;28;19913;-45
2022/11/12 09:18:03;;;;;;;;;;;8.90;88.30;;;;;;5009358;28;20586;-45
2022/11/12 09:20:29;;;;;;;;;;;9.00;88.50;;;;;;5011369;28;19948;-45
2022/11/12 09:22:59;;;;;;;;;;;9.00;88.70;;;;;;5013870;28;20108;-47
2022/11/12 09:25:26;;;;;;;;;;;9.10;88.70;;;;;;4993794;28;19940;-45
2022/11/12 09:27:54;;;;;;;;;;;9.30;88.90;;;;;;4995276;28;20271;-45
2022/11/12 09:30:21;;;;;;;;;;;9.40;88.60;;;;;;4994339;28;20298;-45
2022/11/12 09:32:48;;;;;;;;;;;9.40;87.80;;;;;;4998280;28;19940;-45
2022/11/12 09:35:14;;;;;;;;;;;9.40;87.70;;;;;;4997390;28;19967;-45
2022/11/12 09:37:41;;;;;;;;;;;9.40;87.90;;;;;;4996657;28;19918;-47
2022/11/12 09:40:14;;;;;;;;;;;9.50;87.90;;;;;;4994993;28;19914;-45
2022/11/12 09:42:40;;;;;;;;;;;9.60;88.00;;;;;;4993828;28;19913;-45
2022/11/12 09:45:16;;;;;;;;;;;9.70;87.60;;;;;;4993671;28;20353;-45
2022/11/12 09:47:45;;;;;;;;;;;9.80;87.40;;;;;;4992971;28;19921;-45
2022/11/12 09:50:11;;;;;;;;;;;9.90;87.30;;;;;;5009318;28;20279;-47
2022/11/12 09:52:38;;;;;;;;;;;10.00;86.90;;;;;;5014394;28;19913;-45
2022/11/12 09:55:11;;;;;;;;;;;10.00;86.70;;;;;;5014224;28;20286;-49
2022/11/12 09:57:36;;;;;;;;;;;10.00;86.60;;;;;;4994505;28;19913;-44
2022/11/12 10:00:24;;;;;;;;;;;10.20;87.40;;;;;;5009866;28;19928;-47
2022/11/12 10:03:08;;;;;;;;;;;10.20;86.80;;;;;;4993938;28;20007;-44
2022/11/12 10:05:52;;;;;;;;;;;10.20;86.90;;;;;;5011062;28;19954;-45
2022/11/12 10:08:36;;;;;;;;;;;10.20;87.10;;;;;;5014237;28;19905;-45
2022/11/12 10:11:20;;;;;;;;;;;10.30;86.90;;;;;;5012832;28;19947;-48
2022/11/12 10:13:58;;;;;;;;;;;10.20;86.80;;;;;;5001807;28;19952;-46
2022/11/12 10:16:43;;;;;;;;;;;10.30;87.40;;;;;;5004298;28;19953;-47
2022/11/12 10:19:24;;;;;;;;;;;10.40;87.30;;;;;;4998054;28;20433;-46
2022/11/12 10:22:03;;;;;;;;;;;10.40;87.00;;;;;;5009769;28;19913;-46
2022/11/12 10:24:34;;;;;;;;;;;10.40;87.40;;;;;;5011100;28;20055;-45
2022/11/12 10:27:00;;;;;;;;;;;10.50;87.50;;;;;;5010912;28;19913;-46
2022/11/12 10:29:58;;;;;;;;;;;10.50;87.20;;;;;;5011084;28;19917;-47
2022/11/12 10:32:24;;;;;;;;;;;10.40;87.60;;;;;;4980477;28;20000;-45
2022/11/12 10:34:50;;;;;;;;;;;10.50;87.70;;;;;;4992774;28;19921;-45
2022/11/12 10:37:21;;;;;;;;;;;10.60;87.80;;;;;;5013520;28;19913;-45
2022/11/12 10:39:47;;;;;;;;;;;10.70;87.70;;;;;;5013356;28;19913;-47
2022/11/12 10:42:14;;;;;;;;;;;10.80;87.50;;;;;;5010664;28;19940;-45
2022/11/12 10:44:42;;;;;;;;;;;10.90;87.40;;;;;;5004599;28;20350;-46
2022/11/12 10:47:27;;;;;;;;;;;10.90;87.30;;;;;;5010412;28;19909;-45
2022/11/12 10:50:09;;;;;;;;;;;10.90;86.90;;;;;;5010409;28;20047;-46
2022/11/12 10:52:37;;;;;;;;;;;10.90;87.00;;;;;;4997045;28;19909;-46
2022/11/12 10:55:21;;;;;;;;;;;11.00;86.90;;;;;;4993363;28;19909;-45
2022/11/12 10:58:09;;;;;;;;;;;11.00;86.70;;;;;;4993668;28;19914;-46
2022/11/12 11:00:36;;;;;;;;;;;11.00;87.00;;;;;;4989937;28;19924;-46
2022/11/12 11:03:15;;;;;;;;;;;11.00;87.00;;;;;;4992958;28;19910;-45
2022/11/12 11:06:00;;;;;;;;;;;11.10;86.90;;;;;;4996705;28;19914;-46
2022/11/12 11:08:40;;;;;;;;;;;11.10;86.70;;;;;;5013537;28;19906;-47
2022/11/12 11:11:13;;;;;;;;;;;11.10;86.80;;;;;;5000599;28;19965;-46
2022/11/12 11:13:42;;;;;;;;;;;11.00;86.50;;;;;;4993751;28;19964;-46
2022/11/12 11:16:11;;;;;;;;;;;11.00;86.80;;;;;;5009032;28;19910;-46
2022/11/12 11:18:40;;;;;;;;;;;11.10;86.70;;;;;;4992496;28;19925;-45
2022/11/12 11:21:06;;;;;;;;;;;11.10;87.10;;;;;;5000283;28;19928;-45
2022/11/12 11:23:52;;;;;;;;;;;11.20;87.00;;;;;;5017040;28;19917;-46
2022/11/12 11:26:36;;;;;;;;;;;11.20;86.90;;;;;;4995726;28;19923;-47
2022/11/12 11:29:07;;;;;;;;;;;11.20;86.80;;;;;;4997395;28;19956;-46
2022/11/12 11:31:40;;;;;;;;;;;11.30;86.90;;;;;;4997377;28;19906;-46
2022/11/12 11:34:19;;;;;;;;;;;11.30;86.60;;;;;;5012635;28;19920;-47
2022/11/12 11:36:57;;;;;;;;;;;11.40;86.70;;;;;;5008009;28;20296;-45
2022/11/12 11:39:28;;;;;;;;;;;11.40;86.70;;;;;;4997288;28;19917;-46
2022/11/12 11:42:18;;;;;;;;;;;11.40;86.70;;;;;;4997352;28;19913;-45
2022/11/12 11:45:02;;;;;;;;;;;11.40;86.50;;;;;;4996249;28;19910;-49
2022/11/12 11:47:28;;;;;;;;;;;11.40;86.40;;;;;;4997033;28;19956;-46
2022/11/12 11:50:08;;;;;;;;;;;11.40;86.60;;;;;;4999177;28;19945;-47
2022/11/12 11:52:40;;;;;;;;;;;11.40;86.50;;;;;;4997053;28;19909;-46
2022/11/12 11:55:24;;;;;;;;;;;11.50;86.60;;;;;;4996821;28;20240;-48
2022/11/12 11:58:08;;;;;;;;;;;11.50;86.30;;;;;;4998946;28;19924;-47
2022/11/12 12:00:55;;;;;;;;;;;11.50;86.60;;;;;;5003622;28;19921;-45
2022/11/12 12:03:39;;;;;;;;;;;11.50;86.40;;;;;;4996618;28;19924;-47
2022/11/12 12:06:17;;;;;;;;;;;11.50;86.40;;;;;;5012014;28;20247;-45
2022/11/12 12:09:00;;;;;;;;;;;11.50;86.50;;;;;;5013048;28;20342;-46
2022/11/12 12:11:41;;;;;;;;;;;11.60;86.70;;;;;;5014647;28;19991;-46
2022/11/12 12:14:10;;;;;;;;;;;11.60;86.50;;;;;;4999486;28;19918;-47
2022/11/12 12:17:02;;;;;;;;;;;11.70;86.70;;;;;;4996966;28;19921;-48
2022/11/12 12:19:51;;;;;;;;;;;11.80;86.90;;;;;;5010354;28;20016;-46
2022/11/12 12:22:24;;;;;;;;;;;11.80;86.60;;;;;;5015129;28;19920;-46
2022/11/12 12:25:02;;;;;;;;;;;11.90;86.40;;;;;;5013059;28;20353;-46
2022/11/12 12:27:37;;;;;;;;;;;12.00;86.80;;;;;;4994376;28;19917;-46
2022/11/12 12:30:06;;;;;;;;;;;12.00;86.10;;;;;;4995635;28;20685;-46
2022/11/12 12:32:37;;;;;;;;;;;12.20;86.10;;;;;;5014135;28;19909;-46
2022/11/12 12:35:12;;;;;;;;;;;12.30;86.30;;;;;;4996125;28;20041;-46
2022/11/12 12:37:59;;;;;;;;;;;12.40;86.30;;;;;;5013481;28;20015;-45
2022/11/12 12:40:42;;;;;;;;;;;12.40;85.10;;;;;;5006303;28;19996;-46
2022/11/12 12:43:26;;;;;;;;;;;12.50;85.20;;;;;;5012252;28;19921;-45
2022/11/12 12:45:56;;;;;;;;;;;12.50;85.30;;;;;;5019369;28;19910;-46
2022/11/12 12:48:24;;;;;;;;;;;12.50;85.00;;;;;;4994434;28;20373;-45
2022/11/12 12:50:52;;;;;;;;;;;12.50;84.50;;;;;;5009996;28;19940;-46
2022/11/12 12:53:20;;;;;;;;;;;12.50;84.70;;;;;;5010938;28;20028;-46
2022/11/12 12:55:48;;;;;;;;;;;12.50;84.60;;;;;;5007255;28;19921;-45
2022/11/12 12:58:22;;;;;;;;;;;12.40;84.40;;;;;;4997613;28;19976;-45
2022/11/12 13:00:51;;;;;;;;;;;12.40;84.50;;;;;;4999548;28;20008;-46
2022/11/12 13:03:37;;;;;;;;;;;12.40;84.10;;;;;;4997133;28;19917;-45
2022/11/12 13:06:13;;;;;;;;;;;12.40;84.00;;;;;;4997665;28;20332;-45
2022/11/12 13:08:40;;;;;;;;;;;12.40;84.20;;;;;;4995716;28;19913;-45
2022/11/12 13:11:07;;;;;;;;;;;12.40;84.30;;;;;;4995171;28;19910;-46
2022/11/12 13:13:34;;;;;;;;;;;12.40;84.80;;;;;;4995954;28;19948;-45
2022/11/12 13:16:01;;;;;;;;;;;12.40;84.70;;;;;;5007134;28;20398;-45
2022/11/12 13:18:39;;;;;;;;;;;12.40;83.90;;;;;;4998712;28;19917;-46
2022/11/12 13:21:10;;;;;;;;;;;12.40;84.00;;;;;;5009497;28;19917;-49
2022/11/12 13:24:07;;;;;;;;;;;12.50;84.20;;;;;;5013374;28;19910;-45
2022/11/12 13:26:53;;;;;;;;;;;12.50;84.40;;;;;;4995638;28;19917;-45
2022/11/12 13:29:23;;;;;;;;;;;12.50;84.20;;;;;;4994855;28;19914;-45
2022/11/12 13:32:11;;;;;;;;;;;12.60;84.30;;;;;;4998301;28;19914;-45
2022/11/12 13:34:37;;;;;;;;;;;12.60;84.40;;;;;;5013051;28;19921;-46
2022/11/12 13:37:04;;;;;;;;;;;12.60;83.80;;;;;;5014764;28;19919;-46
2022/11/12 13:39:37;;;;;;;;;;;12.60;83.90;;;;;;4995403;28;20004;-45
2022/11/12 13:45:08;;;;;;;;;;;12.60;84.00;;;;;;5009553;28;19920;-45
2022/11/12 13:47:36;;;;;;;;;;;12.60;84.10;;;;;;5008387;28;20327;-46
2022/11/12 13:50:06;;;;;;;;;;;12.50;84.20;;;;;;5008060;28;19913;-47
2022/11/12 13:52:42;;;;;;;;;;;12.40;84.50;;;;;;4993175;28;19949;-48
2022/11/12 13:55:28;;;;;;;;;;;12.30;84.60;;;;;;4993748;28;19906;-46
2022/11/12 13:57:55;;;;;;;;;;;12.30;84.80;;;;;;5006359;28;19921;-46
2022/11/12 14:00:23;;;;;;;;;;;12.20;85.00;;;;;;5012452;28;19909;-47
2022/11/12 14:03:00;;;;;;;;;;;12.20;85.20;;;;;;4996446;28;19922;-46
2022/11/12 14:05:31;;;;;;;;;;;12.10;85.40;;;;;;5012376;28;20307;-46
2022/11/12 14:07:57;;;;;;;;;;;12.20;85.50;;;;;;5013173;28;19941;-49
2022/11/12 14:10:28;;;;;;;;;;;12.10;85.50;;;;;;5002200;28;20490;-45
2022/11/12 14:12:57;;;;;;;;;;;12.10;85.50;;;;;;4998851;28;19913;-47
2022/11/12 14:15:41;;;;;;;;;;;12.20;85.80;;;;;;4997878;28;19906;-46
2022/11/12 14:18:33;;;;;;;;;;;12.20;85.70;;;;;;4998344;28;19925;-44
2022/11/12 14:21:03;;;;;;;;;;;12.20;85.60;;;;;;5008121;28;19956;-44
2022/11/12 14:23:30;;;;;;;;;;;12.20;85.50;;;;;;5011873;28;19917;-45
2022/11/12 14:25:55;;;;;;;;;;;12.20;85.50;;;;;;5005601;28;19944;-47
2022/11/12 14:28:27;;;;;;;;;;;12.20;85.60;;;;;;4994650;28;19993;-47
2022/11/12 14:30:55;;;;;;;;;;;12.20;85.80;;;;;;4994326;28;19956;-44
2022/11/12 14:33:23;;;;;;;;;;;12.20;85.90;;;;;;5007702;28;19945;-45
2022/11/12 14:35:50;;;;;;;;;;;12.20;85.80;;;;;;5011910;28;19909;-46
2022/11/12 14:38:18;;;;;;;;;;;12.20;85.60;;;;;;5002367;28;19918;-47
2022/11/12 14:40:52;;;;;;;;;;;12.10;85.50;;;;;;4995093;28;20327;-45
2022/11/12 14:43:28;;;;;;;;;;;12.20;85.60;;;;;;4995104;28;19913;-45
2022/11/12 14:45:56;;;;;;;;;;;12.10;85.50;;;;;;5013824;28;19906;-47
2022/11/12 14:48:26;;;;;;;;;;;12.00;85.70;;;;;;5005927;28;19913;-48
2022/11/12 14:51:12;;;;;;;;;;;11.90;85.80;;;;;;5009694;28;19913;-44
2022/11/12 14:53:44;;;;;;;;;;;11.90;86.00;;;;;;5011586;28;19920;-46
2022/11/12 14:56:43;;;;;;;;;;;11.80;86.10;;;;;;5011530;28;19952;-51
2022/11/12 14:59:11;;;;;;;;;;;11.70;86.30;;;;;;4981848;28;20311;-46
2022/11/12 15:01:39;;;;;;;;;;;11.60;86.70;;;;;;4993310;28;19984;-49
2022/11/12 15:04:14;;;;;;;;;;;11.50;86.80;;;;;;5000933;28;19920;-46
2022/11/12 15:06:41;;;;;;;;;;;11.40;86.90;;;;;;5011641;28;19921;-48